createdAt,value
2022-08-20T00:02:23.261Z,97189.41
2022-08-20T00:04:50.454Z,97196.59
2022-08-20T00:07:17.376Z,97187.00
2022-08-20T00:09:44.959Z,97185.13
2022-08-20T00:12:13.645Z,97181.78
2022-08-20T00:14:40.528Z,97174.22
2022-08-20T00:17:07.257Z,97174.34
2022-08-20T00:19:34.322Z,97166.72
2022-08-20T00:22:01.080Z,97173.56
2022-08-20T00:24:27.798Z,97174.16
2022-08-20T00:26:54.590Z,97172.78
2022-08-20T00:29:22.324Z,97170.06
2022-08-20T00:31:50.452Z,97167.75
2022-08-20T00:34:17.531Z,97167.88
2022-08-20T00:36:44.281Z,97168.72
2022-08-20T00:39:11.041Z,97178.59
2022-08-20T00:41:37.846Z,97175.91
2022-08-20T00:44:15.801Z,97181.50
2022-08-20T00:46:43.502Z,97183.72
2022-08-20T00:49:18.853Z,97183.13
2022-08-20T00:52:09.154Z,97186.72
2022-08-20T00:54:35.998Z,97185.63
2022-08-20T00:57:13.608Z,97180.94
2022-08-20T00:59:42.327Z,97192.16
2022-08-20T01:02:12.839Z,97183.22
2022-08-20T01:04:39.907Z,97180.44
2022-08-20T01:07:07.224Z,97188.09
2022-08-20T01:09:57.863Z,97181.75
2022-08-20T01:12:23.684Z,97188.09
2022-08-20T01:14:51.286Z,97188.03
2022-08-20T01:17:23.779Z,97189.38
2022-08-20T01:20:06.113Z,97183.84
2022-08-20T01:23:00.072Z,97179.69
2022-08-20T01:25:41.613Z,97183.84
2022-08-20T01:28:08.283Z,97175.03
2022-08-20T01:30:35.206Z,97181.81
2022-08-20T01:33:02.683Z,97188.75
2022-08-20T01:35:29.567Z,97188.88
2022-08-20T01:37:56.618Z,97188.75
2022-08-20T01:40:41.722Z,97194.28
2022-08-20T01:43:09.115Z,97200.50
2022-08-20T01:45:36.910Z,97199.66
2022-08-20T01:48:06.970Z,97197.03
2022-08-20T01:50:35.109Z,97196.41
2022-08-20T01:53:08.757Z,97199.28
2022-08-20T01:55:35.469Z,97202.63
2022-08-20T01:58:02.179Z,97197.06
2022-08-20T02:00:29.094Z,97199.31
2022-08-20T02:03:00.882Z,97203.66
2022-08-20T02:05:33.503Z,97203.13
2022-08-20T02:08:02.065Z,97202.47
2022-08-20T02:10:31.664Z,97206.06
2022-08-20T02:13:00.387Z,97204.00
2022-08-20T02:15:35.224Z,97209.56
2022-08-20T02:18:14.860Z,97195.06
2022-08-20T02:20:43.407Z,97207.59
2022-08-20T02:23:12.057Z,97205.25
2022-08-20T02:25:40.398Z,97208.13
2022-08-20T02:28:14.390Z,97197.72
2022-08-20T02:30:46.397Z,97211.50
2022-08-20T02:33:17.160Z,97200.56
2022-08-20T02:35:46.494Z,97201.06
2022-08-20T02:38:13.686Z,97199.00
2022-08-20T02:40:40.542Z,97205.28
2022-08-20T02:43:07.734Z,97196.19
2022-08-20T02:45:40.248Z,97196.19
2022-08-20T02:48:07.031Z,97191.97
2022-08-20T02:50:33.811Z,97184.34
2022-08-20T02:53:00.527Z,97181.50
2022-08-20T02:55:28.371Z,97181.44
2022-08-20T02:58:00.065Z,97178.47
2022-08-20T03:00:32.265Z,97174.25
2022-08-20T03:03:10.463Z,97179.09
2022-08-20T03:05:39.801Z,97189.59
2022-08-20T03:08:09.247Z,97191.59
2022-08-20T03:10:37.905Z,97197.28
2022-08-20T03:13:05.800Z,97200.19
2022-08-20T03:15:33.656Z,97198.78
2022-08-20T03:18:01.029Z,97198.03
2022-08-20T03:20:28.222Z,97200.69
2022-08-20T03:22:54.986Z,97194.34
2022-08-20T03:25:22.238Z,97194.31
2022-08-20T03:27:53.156Z,97191.97
2022-08-20T03:30:22.114Z,97201.72
2022-08-20T03:32:48.844Z,97206.97
2022-08-20T03:35:17.398Z,97212.09
2022-08-20T03:37:45.757Z,97204.78
2022-08-20T03:40:20.679Z,97207.78
2022-08-20T03:42:47.443Z,97209.47
2022-08-20T03:45:18.399Z,97215.03
2022-08-20T03:47:48.447Z,97204.69
2022-08-20T03:50:22.791Z,97214.03
2022-08-20T03:52:51.792Z,97208.03
2022-08-20T03:55:19.001Z,97204.03
2022-08-20T03:57:52.239Z,97210.47
2022-08-20T04:00:27.725Z,97207.53
2022-08-20T04:02:57.267Z,97210.94
2022-08-20T04:05:25.330Z,97211.66
2022-08-20T04:07:56.331Z,97219.50
2022-08-20T04:10:30.596Z,97226.94
2022-08-20T04:12:57.386Z,97230.31
2022-08-20T04:15:24.507Z,97231.66
2022-08-20T04:17:52.718Z,97224.78
2022-08-20T04:20:23.365Z,97226.09
2022-08-20T04:22:58.867Z,97229.53
2022-08-20T04:25:31.459Z,97229.59
2022-08-20T04:28:05.454Z,97228.25
2022-08-20T04:30:33.386Z,97231.03
2022-08-20T04:33:00.943Z,97232.44
2022-08-20T04:35:28.223Z,97232.50
2022-08-20T04:38:06.929Z,97230.47
2022-08-20T04:40:53.298Z,97226.75
2022-08-20T04:43:23.760Z,97234.16
2022-08-20T04:45:53.586Z,97236.94
2022-08-20T04:48:23.929Z,97233.38
2022-08-20T04:50:52.485Z,97237.19
2022-08-20T04:53:25.751Z,97239.22
2022-08-20T04:55:54.491Z,97241.28
2022-08-20T04:58:25.670Z,97247.59
2022-08-20T05:00:55.432Z,97240.78
2022-08-20T05:03:22.861Z,97238.72
2022-08-20T05:05:50.345Z,97240.78
2022-08-20T05:08:20.329Z,97244.19
2022-08-20T05:10:47.472Z,97244.34
2022-08-20T05:13:14.138Z,97247.91
2022-08-20T05:15:40.915Z,97249.75
2022-08-20T05:18:08.574Z,97249.16
2022-08-20T05:20:40.461Z,97255.66
2022-08-20T05:23:10.366Z,97257.16
2022-08-20T05:25:38.285Z,97264.22
2022-08-20T05:28:14.060Z,97267.56
2022-08-20T05:30:42.949Z,97268.31
2022-08-20T05:33:11.129Z,97270.47
2022-08-20T05:35:39.077Z,97281.63
2022-08-20T05:38:11.734Z,97280.22
2022-08-20T05:40:40.626Z,97272.44
2022-08-20T05:43:08.406Z,97275.88
2022-08-20T05:45:39.993Z,97281.88
2022-08-20T05:48:08.704Z,97281.50
2022-08-20T05:50:35.939Z,97284.19
2022-08-20T05:53:03.089Z,97283.56
2022-08-20T05:55:29.874Z,97287.16
2022-08-20T05:57:58.039Z,97281.75
2022-08-20T06:00:25.339Z,97281.88
2022-08-20T06:03:10.866Z,97288.25
2022-08-20T06:05:37.631Z,97290.41
2022-08-20T06:08:07.625Z,97290.47
2022-08-20T06:10:36.714Z,97295.59
2022-08-20T06:13:04.947Z,97288.91
2022-08-20T06:15:32.446Z,97294.09
2022-08-20T06:18:08.325Z,97297.78
2022-08-20T06:20:50.862Z,97296.75
2022-08-20T06:23:18.961Z,97299.03
2022-08-20T06:25:46.681Z,97300.44
2022-08-20T06:28:14.633Z,97302.59
2022-08-20T06:30:41.429Z,97301.28
2022-08-20T06:33:08.118Z,97304.91
2022-08-20T06:35:37.704Z,97304.41
2022-08-20T06:38:05.885Z,97305.25
2022-08-20T06:40:34.375Z,97302.69
2022-08-20T06:43:01.745Z,97298.69
2022-08-20T06:45:31.406Z,97286.78
2022-08-20T06:48:01.289Z,97293.78
2022-08-20T06:50:33.213Z,97298.63
2022-08-20T06:53:00.328Z,97293.47
2022-08-20T06:55:27.327Z,97302.84
2022-08-20T06:58:05.022Z,97306.00
2022-08-20T07:00:33.364Z,97309.28
2022-08-20T07:03:01.119Z,97307.94
2022-08-20T07:05:36.434Z,97312.19
2022-08-20T07:08:04.356Z,97304.63
2022-08-20T07:10:31.606Z,97308.91
2022-08-20T07:13:00.181Z,97310.47
2022-08-20T07:15:27.306Z,97315.31
2022-08-20T07:18:00.928Z,97316.72
2022-08-20T07:20:29.077Z,97314.16
2022-08-20T07:22:56.184Z,97324.16
2022-08-20T07:25:24.098Z,97322.97
2022-08-20T07:27:51.745Z,97321.75
2022-08-20T07:30:57.125Z,97324.16
2022-08-20T07:33:26.433Z,97326.72
2022-08-20T07:35:55.373Z,97328.69
2022-08-20T07:38:24.647Z,97332.31
2022-08-20T07:40:53.306Z,97333.84
2022-08-20T07:43:21.541Z,97340.25
2022-08-20T07:45:49.812Z,97337.00
2022-08-20T07:48:31.489Z,97337.25
2022-08-20T07:51:04.591Z,97332.44
2022-08-20T07:53:36.020Z,97346.19
2022-08-20T07:56:10.158Z,97347.34
2022-08-20T07:58:41.517Z,97354.81
2022-08-20T08:01:10.320Z,97346.34
2022-08-20T08:03:49.310Z,97349.88
2022-08-20T08:06:29.967Z,97349.44
2022-08-20T08:09:10.417Z,97352.28
2022-08-20T08:11:44.948Z,97347.81
2022-08-20T08:14:14.086Z,97347.75
2022-08-20T08:16:45.327Z,97354.69
2022-08-20T08:19:14.269Z,97354.06
2022-08-20T08:21:41.414Z,97351.22
2022-08-20T08:24:08.286Z,97356.59
2022-08-20T08:26:34.972Z,97359.16
2022-08-20T08:29:02.601Z,97344.50
2022-08-20T08:31:29.728Z,97348.44
2022-08-20T08:33:56.696Z,97356.16
2022-08-20T08:36:26.303Z,97351.09
2022-08-20T08:38:54.622Z,97345.47
2022-08-20T08:41:34.439Z,97355.63
2022-08-20T08:44:13.166Z,97348.59
2022-08-20T08:46:43.359Z,97346.00
2022-08-20T08:49:10.699Z,97354.38
2022-08-20T08:51:41.994Z,97348.50
2022-08-20T08:54:16.530Z,97347.09
2022-08-20T08:56:43.568Z,97354.78
2022-08-20T08:59:16.936Z,97350.38
2022-08-20T09:01:53.730Z,97350.06
2022-08-20T09:04:32.271Z,97354.81
2022-08-20T09:06:59.695Z,97353.34
2022-08-20T09:09:31.286Z,97347.75
2022-08-20T09:12:12.930Z,97354.63
2022-08-20T09:14:41.285Z,97344.47
2022-08-20T09:17:08.663Z,97345.72
2022-08-20T09:19:36.074Z,97353.03
2022-08-20T09:22:14.771Z,97346.66
2022-08-20T09:24:42.397Z,97344.38
2022-08-20T09:27:31.564Z,97352.22
2022-08-20T09:29:58.958Z,97344.94
2022-08-20T09:32:26.205Z,97350.88
2022-08-20T09:34:59.259Z,97352.47
2022-08-20T09:37:33.720Z,97346.72
2022-08-20T09:40:04.716Z,97351.47
2022-08-20T09:42:40.375Z,97341.47
2022-08-20T09:45:13.619Z,97345.88
2022-08-20T09:47:54.994Z,97344.47
2022-08-20T09:50:26.754Z,97350.09
2022-08-20T09:52:54.549Z,97352.84
2022-08-20T09:55:37.210Z,97359.22
2022-08-20T09:58:35.882Z,97361.25
2022-08-20T10:01:13.714Z,97362.47
2022-08-20T10:03:53.614Z,97365.25
2022-08-20T10:06:21.701Z,97373.72
2022-08-20T10:08:49.197Z,97374.81
2022-08-20T10:11:16.440Z,97365.91
2022-08-20T10:13:45.126Z,97368.44
2022-08-20T10:16:11.972Z,97370.38
2022-08-20T10:18:38.666Z,97362.75
2022-08-20T10:21:14.296Z,97367.63
2022-08-20T10:23:41.452Z,97370.72
2022-08-20T10:26:09.289Z,97364.13
2022-08-20T10:28:36.556Z,97365.25
2022-08-20T10:31:06.499Z,97368.28
2022-08-20T10:33:35.322Z,97358.09
2022-08-20T10:36:09.628Z,97367.38
2022-08-20T10:38:36.501Z,97366.50
2022-08-20T10:41:04.188Z,97365.22
2022-08-20T10:43:30.937Z,97364.44
2022-08-20T10:45:57.729Z,97360.53
2022-08-20T10:48:24.778Z,97364.31
2022-08-20T10:50:51.530Z,97361.31
2022-08-20T10:53:18.671Z,97356.03
2022-08-20T10:55:45.400Z,97363.81
2022-08-20T10:58:13.208Z,97368.72
2022-08-20T11:00:41.173Z,97370.91
2022-08-20T11:03:08.136Z,97368.31
2022-08-20T11:05:34.822Z,97361.50
2022-08-20T11:08:03.760Z,97362.44
2022-08-20T11:10:34.870Z,97361.66
2022-08-20T11:13:03.291Z,97355.69
2022-08-20T11:15:30.029Z,97360.94
2022-08-20T11:17:57.317Z,97355.47
2022-08-20T11:20:26.382Z,97356.19
2022-08-20T11:22:54.404Z,97356.41
2022-08-20T11:25:21.549Z,97364.63
2022-08-20T11:27:50.074Z,97362.56
2022-08-20T11:30:27.773Z,97368.28
2022-08-20T11:32:55.457Z,97366.66
2022-08-20T11:35:43.313Z,97366.50
2022-08-20T11:38:10.602Z,97364.34
2022-08-20T11:40:37.278Z,97366.22
2022-08-20T11:43:14.595Z,97359.75
2022-08-20T11:45:43.110Z,97360.09
2022-08-20T11:48:09.816Z,97370.19
2022-08-20T11:50:36.542Z,97361.31
2022-08-20T11:53:03.314Z,97360.47
2022-08-20T11:55:31.236Z,97361.88
2022-08-20T11:58:05.099Z,97364.78
2022-08-20T12:00:34.651Z,97363.63
2022-08-20T12:03:02.447Z,97362.75
2022-08-20T12:05:30.101Z,97356.97
2022-08-20T12:08:01.008Z,97366.56
2022-08-20T12:10:28.673Z,97355.94
2022-08-20T12:12:56.136Z,97355.53
2022-08-20T12:15:24.250Z,97343.47
2022-08-20T12:17:51.091Z,97342.03
2022-08-20T12:20:17.905Z,97339.78
2022-08-20T12:22:44.832Z,97348.16
2022-08-20T12:25:12.538Z,97351.44
2022-08-20T12:27:39.639Z,97346.81
2022-08-20T12:30:10.651Z,97346.28
2022-08-20T12:32:37.384Z,97346.63
2022-08-20T12:35:05.613Z,97346.88
2022-08-20T12:37:32.854Z,97344.59
2022-08-20T12:40:01.455Z,97344.53
2022-08-20T12:42:30.741Z,97344.63
2022-08-20T12:44:59.545Z,97347.41
2022-08-20T12:47:29.226Z,97346.22
2022-08-20T12:50:01.071Z,97343.28
2022-08-20T12:52:29.221Z,97341.66
2022-08-20T12:54:56.362Z,97346.25
2022-08-20T12:57:28.250Z,97338.44
2022-08-20T13:00:04.852Z,97343.31
2022-08-20T13:02:32.293Z,97338.78
2022-08-20T13:05:04.648Z,97343.28
2022-08-20T13:07:32.733Z,97341.88
2022-08-20T13:10:00.261Z,97341.66
2022-08-20T13:12:27.130Z,97334.19
2022-08-20T13:14:54.122Z,97333.78
2022-08-20T13:17:38.346Z,97328.31
2022-08-20T13:20:11.964Z,97343.31
2022-08-20T13:22:38.722Z,97330.66
2022-08-20T13:25:06.463Z,97337.66
2022-08-20T13:27:33.526Z,97331.19
2022-08-20T13:30:00.249Z,97328.03
2022-08-20T13:32:26.993Z,97332.50
2022-08-20T13:34:53.829Z,97333.59
2022-08-20T13:37:26.215Z,97329.31
2022-08-20T13:39:57.297Z,97326.59
2022-08-20T13:42:24.738Z,97322.72
2022-08-20T13:44:51.521Z,97329.16
2022-08-20T13:47:21.827Z,97334.19
2022-08-20T13:50:02.140Z,97331.38
2022-08-20T13:52:29.266Z,97334.66
2022-08-20T13:54:56.017Z,97329.22
2022-08-20T13:57:24.822Z,97326.44
2022-08-20T13:59:55.466Z,97324.41
2022-08-20T14:02:22.800Z,97323.91
2022-08-20T14:04:49.866Z,97330.81
2022-08-20T14:07:17.860Z,97321.47
2022-08-20T14:09:46.899Z,97321.47
2022-08-20T14:12:14.250Z,97321.69
2022-08-20T14:14:41.736Z,97313.34
2022-08-20T14:17:19.091Z,97313.75
2022-08-20T14:19:47.954Z,97316.63
2022-08-20T14:22:17.423Z,97311.22
2022-08-20T14:24:45.592Z,97314.06
2022-08-20T14:27:14.981Z,97317.50
2022-08-20T14:29:43.373Z,97305.72
2022-08-20T14:32:10.667Z,97313.50
2022-08-20T14:34:38.175Z,97307.97
2022-08-20T14:37:21.741Z,97305.78
2022-08-20T14:39:51.172Z,97308.38
2022-08-20T14:42:18.502Z,97309.75
2022-08-20T14:44:46.093Z,97308.59
2022-08-20T14:47:30.201Z,97304.94
2022-08-20T14:50:03.297Z,97307.81
2022-08-20T14:52:32.933Z,97296.69
2022-08-20T14:54:59.631Z,97301.75
2022-08-20T14:57:26.358Z,97304.53
2022-08-20T14:59:53.401Z,97303.91
2022-08-20T15:02:20.509Z,97299.78
2022-08-20T15:04:54.244Z,97300.25
2022-08-20T15:07:31.418Z,97290.34
2022-08-20T15:10:00.482Z,97294.72
2022-08-20T15:12:28.020Z,97291.91
2022-08-20T15:14:54.918Z,97294.72
2022-08-20T15:17:25.059Z,97286.81
2022-08-20T15:19:51.972Z,97291.56
2022-08-20T15:22:21.142Z,97294.34
2022-08-20T15:24:48.146Z,97290.09
2022-08-20T15:27:24.051Z,97288.72
2022-08-20T15:29:52.382Z,97287.59
2022-08-20T15:32:20.054Z,97287.03
2022-08-20T15:34:47.529Z,97289.03
2022-08-20T15:37:20.666Z,97287.84
2022-08-20T15:39:48.825Z,97291.75
2022-08-20T15:42:16.201Z,97299.22
2022-08-20T15:44:43.739Z,97299.16
2022-08-20T15:47:16.765Z,97299.63
2022-08-20T15:49:44.254Z,97301.16
2022-08-20T15:52:11.812Z,97289.91
2022-08-20T15:54:39.567Z,97292.50
2022-08-20T15:57:12.246Z,97281.91
2022-08-20T15:59:51.076Z,97281.22
2022-08-20T16:02:25.851Z,97279.19
2022-08-20T16:05:09.103Z,97280.84
2022-08-20T16:08:03.789Z,97279.09
2022-08-20T16:10:38.116Z,97272.97
2022-08-20T16:13:11.579Z,97271.19
2022-08-20T16:15:45.112Z,97274.34
2022-08-20T16:18:21.005Z,97278.00
2022-08-20T16:20:50.567Z,97269.69
2022-08-20T16:23:20.034Z,97274.59
2022-08-20T16:25:55.689Z,97271.56
2022-08-20T16:28:32.511Z,97268.69
2022-08-20T16:31:05.009Z,97264.97
2022-08-20T16:33:39.342Z,97259.13
2022-08-20T16:36:26.900Z,97257.31
2022-08-20T16:38:59.033Z,97258.69
2022-08-20T16:41:31.265Z,97255.19
2022-08-20T16:44:04.574Z,97253.44
2022-08-20T16:46:37.982Z,97251.88
2022-08-20T16:49:14.204Z,97259.41
2022-08-20T16:51:51.717Z,97243.44
2022-08-20T16:54:29.308Z,97245.56
2022-08-20T16:57:02.468Z,97247.53
2022-08-20T16:59:29.779Z,97241.34
2022-08-20T17:02:10.394Z,97241.22
2022-08-20T17:04:58.858Z,97237.50
2022-08-20T17:07:53.263Z,97234.22
2022-08-20T17:10:25.203Z,97233.03
2022-08-20T17:12:59.478Z,97221.50
2022-08-20T17:15:30.915Z,97232.53
2022-08-20T17:17:58.202Z,97231.88
2022-08-20T17:20:28.040Z,97245.31
2022-08-20T17:23:11.960Z,97244.59
2022-08-20T17:25:38.813Z,97249.13
2022-08-20T17:28:20.099Z,97241.91
2022-08-20T17:30:47.640Z,97255.13
2022-08-20T17:33:30.742Z,97254.53
2022-08-20T17:36:10.265Z,97258.59
2022-08-20T17:38:41.526Z,97252.41
2022-08-20T17:41:22.450Z,97256.66
2022-08-20T17:44:07.577Z,97263.59
2022-08-20T17:46:43.206Z,97263.44
2022-08-20T17:49:12.170Z,97270.31
2022-08-20T17:51:46.633Z,97264.22
2022-08-20T17:54:32.960Z,97269.97
2022-08-20T17:57:04.279Z,97263.31
2022-08-20T17:59:59.900Z,97269.03
2022-08-20T18:02:28.784Z,97271.47
2022-08-20T18:04:56.158Z,97271.06
2022-08-20T18:07:31.714Z,97267.06
2022-08-20T18:10:08.218Z,97266.56
2022-08-20T18:12:56.087Z,97263.75
2022-08-20T18:15:26.014Z,97264.75
2022-08-20T18:18:06.698Z,97263.44
2022-08-20T18:20:37.685Z,97266.66
2022-08-20T18:23:41.233Z,97259.94
2022-08-20T18:26:15.057Z,97262.09
2022-08-20T18:29:00.697Z,97260.22
2022-08-20T18:31:43.653Z,97257.00
2022-08-20T18:34:18.003Z,97264.47
2022-08-20T18:37:02.504Z,97266.75
2022-08-20T18:39:31.982Z,97271.75
2022-08-20T18:42:09.130Z,97268.41
2022-08-20T18:44:41.886Z,97269.94
2022-08-20T18:47:24.845Z,97270.16
2022-08-20T18:50:07.493Z,97272.09
2022-08-20T18:53:05.864Z,97270.53
2022-08-20T18:55:39.361Z,97263.97
2022-08-20T18:58:09.681Z,97269.78
2022-08-20T19:00:37.573Z,97266.09
2022-08-20T19:03:07.630Z,97266.38
2022-08-20T19:05:40.553Z,97273.16
2022-08-20T19:08:07.888Z,97274.41
2022-08-20T19:10:48.109Z,97275.00
2022-08-20T19:13:33.809Z,97289.34
2022-08-20T19:16:15.194Z,97280.50
2022-08-20T19:18:41.988Z,97285.81
2022-08-20T19:21:15.962Z,97286.31
2022-08-20T19:23:49.382Z,97302.16
2022-08-20T19:26:25.784Z,97290.13
2022-08-20T19:28:59.494Z,97297.09
2022-08-20T19:31:32.277Z,97291.13
2022-08-20T19:34:19.982Z,97292.19
2022-08-20T19:37:35.124Z,97297.63
2022-08-20T19:40:07.867Z,97297.56
2022-08-20T19:42:43.073Z,97298.56
2022-08-20T19:45:28.761Z,97300.47
2022-08-20T19:48:08.033Z,97301.75
2022-08-20T19:50:40.830Z,97297.94
2022-08-20T19:53:18.626Z,97307.88
2022-08-20T19:56:04.510Z,97307.72
2022-08-20T19:58:32.446Z,97311.59
2022-08-20T20:01:01.085Z,97310.78
2022-08-20T20:03:33.925Z,97304.47
2022-08-20T20:06:15.069Z,97303.66
2022-08-20T20:08:59.689Z,97308.16
2022-08-20T20:11:49.834Z,97302.97
2022-08-20T20:14:17.759Z,97308.34
2022-08-20T20:16:45.967Z,97307.34
2022-08-20T20:19:26.439Z,97307.44
2022-08-20T20:22:18.820Z,97311.63
2022-08-20T20:24:57.657Z,97310.22
2022-08-20T20:27:27.066Z,97313.69
2022-08-20T20:30:03.644Z,97314.47
2022-08-20T20:32:33.767Z,97310.56
2022-08-20T20:35:03.838Z,97316.91
2022-08-20T20:37:49.218Z,97319.88
2022-08-20T20:40:25.446Z,97317.00
2022-08-20T20:43:06.403Z,97323.63
2022-08-20T20:45:39.043Z,97326.28
2022-08-20T20:48:22.473Z,97328.44
2022-08-20T20:50:51.044Z,97323.50
2022-08-20T20:53:49.571Z,97321.31
2022-08-20T20:56:36.850Z,97328.06
2022-08-20T20:59:07.078Z,97325.88
2022-08-20T21:01:49.390Z,97328.63
2022-08-20T21:04:23.047Z,97325.94
2022-08-20T21:06:50.982Z,97326.66
2022-08-20T21:09:18.735Z,97330.75
2022-08-20T21:11:45.875Z,97328.44
2022-08-20T21:14:12.600Z,97333.78
2022-08-20T21:16:39.662Z,97332.19
2022-08-20T21:19:07.277Z,97334.69
2022-08-20T21:21:34.160Z,97328.34
2022-08-20T21:24:00.819Z,97327.38
2022-08-20T21:26:28.014Z,97327.91
2022-08-20T21:28:55.112Z,97329.94
2022-08-20T21:31:33.666Z,97324.31
2022-08-20T21:34:00.714Z,97319.44
2022-08-20T21:36:27.620Z,97319.25
2022-08-20T21:38:54.386Z,97326.00
2022-08-20T21:41:29.608Z,97323.50
2022-08-20T21:43:58.877Z,97324.56
2022-08-20T21:46:28.615Z,97323.22
2022-08-20T21:48:55.690Z,97327.31
2022-08-20T21:51:22.409Z,97332.63
2022-08-20T21:53:49.251Z,97332.53
2022-08-20T21:56:16.105Z,97329.69
2022-08-20T21:58:44.337Z,97330.84
2022-08-20T22:01:11.750Z,97332.63
2022-08-20T22:03:41.088Z,97327.31
2022-08-20T22:06:10.927Z,97330.69
2022-08-20T22:08:37.674Z,97327.50
2022-08-20T22:11:05.662Z,97324.56
2022-08-20T22:13:33.337Z,97331.50
2022-08-20T22:16:06.222Z,97329.06
2022-08-20T22:18:33.767Z,97329.50
2022-08-20T22:21:01.209Z,97338.91
2022-08-20T22:23:27.965Z,97322.16
2022-08-20T22:25:54.689Z,97324.72
2022-08-20T22:28:21.558Z,97332.31
2022-08-20T22:30:48.361Z,97316.03
2022-08-20T22:33:20.483Z,97317.91
2022-08-20T22:35:50.896Z,97320.13
2022-08-20T22:38:17.681Z,97316.56
2022-08-20T22:40:44.515Z,97324.66
2022-08-20T22:43:11.430Z,97318.44
2022-08-20T22:45:39.086Z,97328.03
2022-08-20T22:48:07.145Z,97328.56
2022-08-20T22:50:33.812Z,97331.94
2022-08-20T22:53:01.568Z,97331.09
2022-08-20T22:55:28.316Z,97329.69
2022-08-20T22:57:55.270Z,97326.84
2022-08-20T23:00:24.174Z,97327.25
2022-08-20T23:02:55.723Z,97336.03
2022-08-20T23:05:25.516Z,97333.91
2022-08-20T23:07:54.289Z,97337.97
2022-08-20T23:10:22.564Z,97323.25
2022-08-20T23:12:49.430Z,97336.84
2022-08-20T23:15:16.225Z,97331.81
2022-08-20T23:17:43.209Z,97329.47
2022-08-20T23:20:13.789Z,97331.31
2022-08-20T23:22:40.538Z,97321.81
2022-08-20T23:25:08.332Z,97320.19
2022-08-20T23:27:38.248Z,97323.56
2022-08-20T23:30:05.699Z,97316.00
2022-08-20T23:32:32.471Z,97317.31
2022-08-20T23:34:59.157Z,97322.09
2022-08-20T23:37:25.887Z,97318.94
2022-08-20T23:39:52.632Z,97324.97
2022-08-20T23:42:19.334Z,97308.81
2022-08-20T23:44:46.049Z,97315.06
2022-08-20T23:47:16.858Z,97307.41
2022-08-20T23:49:43.753Z,97309.44
2022-08-20T23:52:10.397Z,97305.53
2022-08-20T23:54:37.173Z,97304.03
2022-08-20T23:57:08.145Z,97295.75
2022-08-20T23:59:35.725Z,97298.50
